Terminal Aerodrome Forecast
Issued by NWS Goodland, KS

Home | Current Version | Previous Version | Text Only | Print | Product List | Glossary On
Versions: 1 2 3 4 5 6 7 8 9 10 11 12
000
FTUS43 KGLD 221152
TAFGLD
TAF
KGLD 221152Z 2212/2312 32016KT P6SM SCT060 BKN150
     FM221700 32022G34KT P6SM BKN120
     FM230000 31016KT P6SM SCT100 BKN120
     FM230900 31022G34KT P6SM FEW015 BKN040=

USA.gov is the U.S. government's official web portal to all federal, state and local government web resources and services.